SCC: VIR: ST final practice time

Pos Num Class Team Time Gap To 1st Speed --- --- ----- ------------------------------ ---------- ------- ------- ------- 1. 95 ST Turner Motorsport 2:12.759 88.672 2. ...

Pos Num Class Team                                 Time     Gap  To 1st   Speed
--- --- ----- ------------------------------ ---------- ------- ------- -------
 1.  95 ST    Turner Motorsport                2:12.759                  88.672
 2.  01 ST    Georgian Bay Motorsports         2:13.052   0.293   0.293  88.477
 3.  69 ST    SpeedSource                      2:13.159   0.107   0.400  88.406
 4.  86 ST    Classic BMW - Plano              2:13.423   0.264   0.664  88.231
 5.  27 ST    Bill Fenton Motorsports          2:13.572   0.149   0.813  88.132
 6.  76 ST    Kensai Racing                    2:13.586   0.014   0.827  88.123
 7.  22 ST    HART                             2:13.589   0.003   0.830  88.121
 8.  74 ST    Kensai Racing                    2:13.883   0.294   1.124  87.928
 9. 111 ST    ICY/ Phoenix Racing              2:14.092   0.209   1.333  87.790
10.  00 ST    Georgian Bay Motorsports         2:14.197   0.105   1.438  87.722
11.  31 ST    i-MOTO Racing                    2:14.345   0.148   1.586  87.625
12.  29 ST    Bill Fenton Motorsports          2:14.358   0.013   1.599  87.617
13.  68 ST    SpeedSource                      2:14.405   0.047   1.646  87.586
14.  75 ST    Kensai Racing                    2:15.185   0.780   2.426  87.081
15. 126 ST    Fountain Motorsports             2:15.235   0.050   2.476  87.048
16.  53 ST    Predator Auto Sport              2:15.278   0.043   2.519  87.021
17.  32 ST    i-MOTO Racing                    2:15.310   0.032   2.551  87.000
18.  24 ST    V-Pack Motorsport                2:15.549   0.239   2.790  86.847
19. 127 ST    Fountain Motorsports             2:15.734   0.185   2.975  86.728
20.  63 ST    Roar Racing                      2:15.774   0.040   3.015  86.703
21. 198 ST    RSR Motorsports                  2:16.865   1.091   4.106  86.012
22.  58 ST    BSI Racing                       2:17.037   0.172   4.278  85.904
23. 141 ST    ICY/ Phoenix Racing              2:17.323   0.286   4.564  85.725
24.  56 ST    BSI Racing                       2:17.406   0.083   4.647  85.673
25.  64 ST    T Giovanis Motorsport            2:17.408   0.002   4.649  85.672
26. 125 ST    Fountain Motorsports             2:17.754   0.346   4.995  85.457
27. 138 ST    GS Motorsports                   2:17.882   0.128   5.123  85.377
28. 197 ST    RSR Motorsports                  2:17.944   0.062   5.185  85.339
29. 133 ST    Kinetic Motorsports              2:18.358   0.414   5.599  85.084
30. 174 ST    LRT Racing                       2:18.407   0.049   5.648  85.054
31.  85 ST    Classic BMW - Plano              2:19.212   0.805   6.453  84.562
32.  70 ST    SpeedSource                      2:21.028   1.816   8.269  83.473
33.  48 ST    Team Cobalt California           2:22.542   1.514   9.783  82.586
34.  13 ST    SDS Performance Racing           2:23.156   0.614  10.397  82.232
35.  02 ST    Blackforest Motorsports          2:23.784   0.628  11.025  81.873
36.  62 ST    Roar Racing                      2:26.549   2.765  13.790  80.328

Write a comment
Show comments
About this article
Series GRANDAM